메인 페이지
METAR-TAF:

METAR-TAF

공항 :

나리타 국제공항

도쿄 나리타, 일본

위도: 35-46N, 경도: 140-23E, 고도: 41m

현재 날씨관측

예보는 26분 전, 00:00시(UTC)에 발표되었습니다.
여러 방향의 바람 2kt
온도 21°C
습도 88%
기압 1008 hPa
시정 10km 이상
고도 800ft 상공 구름 조금
고도 1200ft 상공 구름 많음

METAR: RJAA 220000Z VRB02KT 9999 FEW008 BKN012 21/19 Q1008 BECMG 32005KT

시각: 09:26 (00:26 UTC)

예보

예보는 1 시간 21분 전, 23:05시(UTC)에 발표되었습니다.
예보 대상 시간: 22일 00시부터 23일 06시까지 (UTC)
북북서5kt
시정 10km 이상
고도 1500ft 상공 구름 조금
고도 2500ft 상공 구름 보통
일시적
22일 02시부터 22일 06시까지 (UTC)
시정: 4000m
고도 400ft 상공 구름 조금
고도 800ft 상공 구름 많음
소나기, 박무

TAF: RJAA 212305Z 2200/2306 34005KT 9999 FEW015 SCT025 TEMPO 2202/2206 4000 SHRA BR FEW004 BKN008

4,000개 이상의 공항 관측 자료 및 예보 (METAR 및 TAF 보고).

지도상에서 검색 가능한 기상관측소가 노란 점과 빨간 점으로 표시되어 있습니다.

기상관측소 명을 보려면 표시 위로 마우스를 이동하세요.

날씨 관측과 예보를 보려면 클릭하세요.

지도 변경 : 확대하려면 엑스 표시가 있는 녹색 버튼, 축소하려면 빼기 표시가 있는 녹색 버튼, 다음 페이지의 지도를 보려면 녹색 화살표를 클릭하세요.


METAR-TAF: